François Noël

Скаут - Olympique Lyonnais
25 Фев 2027
Четверг
Продолжить

Характер

Адаптивность (19) Амбиции (2) Скандальность (3) Верность (10) Стрессоустойчивость (5) Профессионализм (11) Благородство (18) Темперамент (13)

Профиль

Стиль управления Демократичный
Лицензия Континентальная B
Решительность 15
Управление людьми 7
Мотивация 15
Дисциплина 14
Удовлетворённость
49%
Усталость
0%
Должность Скаут
Зарплата 18.9K в нед.
Контракт 14.03.2028

Производительность

Поведение Нормальное
Эффективность тренировок
24%
Развитие игроков
65%
Профилактика травм
45%
Тактическая реализация
70%

Недавние события

Участвовал в селекционном совещании 7 дн. назад
Оценил игрока 7 дн. назад
Оценил игрока 7 дн. назад
Оценил игрока 7 дн. назад
Оценил игрока 7 дн. назад
Оценил игрока 7 дн. назад
Оценил игрока 7 дн. назад
Оценил игрока 14 дн. назад

Текущее наблюдение

152
Игрок Клуб Статус Способность Уверенность Наблюдений Последнее наблюдение Последний голос
Matt O'Riley Brighton Активный 147 / 141 40% 4 22.02.2027 -
José Paradela Cruz Azul Активный 135 / 131 40% 1 22.02.2027 -
Ritsu Doan Benfica Активный 154 / 152 40% 1 22.02.2027 -
Samuel Soares Benfica Активный 132 / 130 40% 1 21.02.2027 -
Guillaume Restes Toulouse FC Активный 138 / 136 40% 1 21.02.2027 -
Anatolii Trubin Juventus Активный 157 / 152 40% 1 21.02.2027 -
Mads Hermansen West Ham United Активный 135 / 137 40% 3 20.02.2027 -
Thomas De Bruyne Mouscron Активный 127 / 124 40% 2 20.02.2027 -
Beau Reus Waasland-Beveren Активный 127 / 128 40% 1 20.02.2027 -
Christian Tielemans KV Oostende Активный 145 / 146 40% 4 19.02.2027 -
Callum Hudson-Odoi Nottingham Forest Активный 155 / 146 40% 2 19.02.2027 -
Kaoru Mitoma Brighton Активный 159 / 157 40% 2 19.02.2027 -
Rémi Lemoine Chamois Niortais Активный 157 / 158 40% 1 19.02.2027 -
Marcelo Allende Mamelodi Sundowns Активный 131 / 128 40% 1 19.02.2027 -
Osame Sahraoui LOSC Lille Активный 147 / 147 40% 3 18.02.2027 -
Erick Sánchez OGC Nice Активный 143 / 143 40% 3 18.02.2027 -
Xavi Simons Tottenham Активный 156 / 161 40% 3 18.02.2027 -
Petar Stanić Ludogorets Активный 141 / 136 40% 1 16.02.2027 -
Razvan Balasa Crvena Zvezda Активный 143 / 144 40% 1 16.02.2027 -
Radek Vítek Middlesbrough Активный 139 / 141 40% 2 14.02.2027 -
Leo Kokubo Sint-Truiden Активный 114 / 114 40% 1 14.02.2027 -
Berke Özer LOSC Lille Активный 142 / 136 40% 1 14.02.2027 -
Senne Lammens Manchester United Активный 154 / 147 40% 3 13.02.2027 -
Marcelin Mbahbi Cotonsport Garoua Активный 96 / 96 40% 1 13.02.2027 -
Héctor Holguín Veracruz Активный 117 / 107 40% 1 13.02.2027 -
Killian Cahill Leyton Orient Активный 106 / 103 40% 1 12.02.2027 -
Yehvann Diouf OGC Nice Активный 141 / 135 40% 1 12.02.2027 -
Mathieu Patouillet Stade Brestois Активный 111 / 126 40% 2 10.02.2027 -
Bradley Mabunda SuperSport United Активный 115 / 110 40% 1 10.02.2027 -
James Trafford Leeds United Активный 139 / 146 40% 1 10.02.2027 -
Robin Roefs Sunderland Активный 142 / 147 40% 2 09.02.2027 -
Zach Hemming Chesterfield Активный 110 / 103 40% 1 09.02.2027 -
Jan Virgili Club Brugge Активный 129 / 135 40% 5 08.02.2027 -
Alejandro Zendejas Club America Активный 144 / 136 40% 1 08.02.2027 -
Emile Smith Rowe Fulham Активный 151 / 150 40% 1 07.02.2027 -
Bradley Locko Stade Brestois Активный 137 / 137 40% 1 07.02.2027 -
Robin Risser RC Lens Активный 141 / 146 40% 1 07.02.2027 -
Alkalifa Coulibaly Onze Createurs Активный 97 / 102 40% 1 07.02.2027 -
Bart Verbruggen Brighton Активный 149 / 153 40% 1 06.02.2027 -
Adriel Torreense Активный 119 / 117 40% 1 06.02.2027 -
Patrik Gunnarsson KV Kortrijk Активный 123 / 123 40% 1 04.02.2027 -
Grégoire Coudert Burnley Активный 131 / 127 40% 1 04.02.2027 -
Mats Wieffer Brighton Активный 147 / 148 40% 2 03.02.2027 -
Ryan Sessegnon Fulham Активный 141 / 141 40% 4 03.02.2027 -
Loum Tchaouna Coventry City Активный 138 / 136 40% 1 03.02.2027 -
Carlos Vicente Birmingham Активный 139 / 140 40% 1 02.02.2027 -
Sofiane Diop OGC Nice Активный 152 / 142 40% 1 02.02.2027 -
Julio Enciso Ipswich Town Активный 145 / 149 40% 1 02.02.2027 -
Félix Lemaréchal Club Brugge Активный 133 / 134 40% 4 01.02.2027 -
Thorgan Witsel KV Oostende Активный 137 / 131 40% 3 01.02.2027 -
Ludovic Blas Stade Rennais Активный 142 / 146 40% 1 01.02.2027 -
Orbelín Pineda Monterrey Активный 135 / 133 40% 3 30.12.2026 -
João Pedro Chelsea Активный 157 / 155 40% 2 30.12.2026 -
Jeremie Frimpong Liverpool Активный 163 / 160 40% 3 29.12.2026 -
Khvicha Kvaratskhelia Paris Saint-Germain Активный 168 / 168 40% 5 29.12.2026 -
Joaquín Panichelli Le Havre AC Активный 145 / 136 40% 3 29.12.2026 -
Lewis Hall Newcastle United Активный 146 / 153 40% 1 29.12.2026 -
Achraf Hakimi Paris Saint-Germain Активный 181 / 176 40% 11 26.12.2026 -
Noah Sadiki Sunderland Активный 147 / 151 40% 1 26.12.2026 -
Jeppe Erenbjerg Racing Genk Активный 124 / 115 40% 2 25.12.2026 -
Ansu Fati Monaco Активный 138 / 140 40% 2 25.12.2026 -
Marley Aké Zulte Waregem Активный 115 / 116 40% 1 25.12.2026 -
Loum Tchaouna Coventry City Упущен 145 / 141 40% 1 25.12.2026 -
João Neves Paris Saint-Germain Упущен 171 / 169 40% 2 23.12.2026 -
Agustín Palavecino Cruz Azul Активный 128 / 139 40% 2 22.12.2026 -
Léo Scienza Southampton Активный 137 / 134 40% 4 22.12.2026 -
Sofiane Diop OGC Nice Упущен 145 / 146 40% 1 22.12.2026 -
Noussair Mazraoui Manchester United Активный 150 / 151 40% 3 21.12.2026 -
Taiga Hata Sint-Truiden Активный 128 / 123 40% 2 20.12.2026 -
Vitinha Paris Saint-Germain Активный 185 / 175 40% 6 19.12.2026 -
Carlos Forbs Club Brugge Активный 131 / 137 40% 1 19.12.2026 -
Matheus Cunha Manchester United Активный 156 / 152 40% 1 19.12.2026 -
Yan Diomandé Real Madrid Активный 146 / 157 40% 1 15.12.2026 -
Tyler Adams Bournemouth Активный 154 / 154 40% 3 14.12.2026 -
Florentino Luís Ipswich Town Активный 142 / 137 40% 2 14.12.2026 -
Alexsandro Ribeiro LOSC Lille Активный 150 / 147 40% 2 14.12.2026 -
Óscar Mingueza Crystal Palace Активный 156 / 145 40% 5 13.12.2026 -
Nico González Newcastle United Активный 162 / 164 40% 3 13.12.2026 -
Wesley Fofana Chelsea Активный 163 / 164 40% 4 09.12.2026 -
Jurriën Timber Arsenal Активный 161 / 164 40% 2 09.12.2026 -
Ousmane Diomande Nottingham Forest Активный 146 / 150 40% 3 08.12.2026 -
William Balikwisha OH Leuven Активный 119 / 112 40% 2 08.12.2026 -
Jakob Napoleon Romsaas Charleroi Активный 125 / 119 40% 1 08.12.2026 -
Anton Stach Leeds United Активный 149 / 147 40% 1 08.12.2026 -
Mason Mount Manchester United Активный 157 / 149 40% 1 04.12.2026 -
Bruno Guimarães Arsenal Активный 174 / 163 40% 3 03.12.2026 -
Vanderson Monaco Упущен 137 / 146 40% 2 03.12.2026 -
Gabriel Arsenal Активный 174 / 173 40% 3 02.12.2026 -
Curtis Jones Inter Активный 161 / 151 40% 3 02.12.2026 -
Rodrigo Zalazar Sporting CP Активный 156 / 150 40% 1 30.11.2026 -
Carlos Vicente Birmingham Упущен 144 / 136 40% 1 30.11.2026 -
Quinten Timber Crystal Palace Активный 153 / 146 40% 2 27.11.2026 -
Boubacar Kamara Aston Villa Активный 165 / 160 40% 2 27.11.2026 -
Marco Asensio Fenerbahce Упущен 154 / 162 40% 2 27.11.2026 -
Alexis Mac Allister Liverpool Активный 154 / 155 40% 9 24.11.2026 -
Rico Lewis Manchester City Активный 142 / 150 40% 1 24.11.2026 -
Kai Havertz Arsenal Активный 161 / 163 40% 2 23.11.2026 -
Kiernan Dewsbury-Hall Everton Активный 152 / 151 40% 1 23.11.2026 -
Tristan Degreef Anderlecht Активный 123 / 129 40% 4 19.11.2026 -
Conor Gallagher Tottenham Активный 153 / 150 40% 2 14.11.2026 -
Pedro Porro Tottenham Активный 144 / 141 40% 1 14.11.2026 -
Tiago Santos LOSC Lille Активный 149 / 140 40% 2 12.11.2026 -
Nordi Mukiele Sunderland Активный 148 / 143 40% 2 11.11.2026 -
Pierre Kalulu Juventus Активный 154 / 152 40% 1 11.11.2026 -
Ilay Camara Anderlecht Активный 127 / 129 40% 1 10.11.2026 -
Sven Botman Newcastle United Активный 163 / 162 40% 1 09.11.2026 -
Richard Gonzalez Chamois Niortais Активный 125 / 125 40% 1 05.11.2026 -
Nikolas Sattlberger Racing Genk Активный 126 / 126 40% 1 05.11.2026 -
Denis Zakaria Monaco Активный 146 / 145 40% 1 04.11.2026 -
Igor Burnley Активный 142 / 143 40% 1 04.11.2026 -
Maksim Kireev KV Mechelen Активный 117 / 126 40% 1 03.11.2026 -
Isa Sakamoto Westerlo Активный 115 / 117 40% 1 03.11.2026 -
Antonee Robinson Fulham Активный 153 / 146 40% 1 02.11.2026 -
Kevin Amaro Racing Genk Активный 122 / 124 40% 1 29.10.2026 -
Amad Manchester United Активный 156 / 150 40% 1 29.10.2026 -
Diego Lainez Tigres Активный 136 / 134 40% 1 28.10.2026 -
Daan Heymans Racing Genk Активный 124 / 122 40% 2 27.10.2026 -
Abdelkahar Kadri KAA Gent Активный 121 / 120 40% 1 27.10.2026 -
Nayel Mehssatou KV Kortrijk Активный 119 / 118 40% 1 27.10.2026 -
Hector Ramirez Newcastle United Активный 153 / 157 40% 3 26.10.2026 -
Myron van Brederode KV Mechelen Активный 113 / 121 40% 3 26.10.2026 -
Thibaud Verlinden OH Leuven Активный 130 / 126 40% 1 26.10.2026 -
Severin Nioule Charleroi Активный 99 / 111 40% 1 26.10.2026 -
Nathan Collins Brentford Активный 140 / 147 40% 1 26.10.2026 -
Miloš Kerkez Liverpool Активный 149 / 152 40% 2 23.10.2026 -
Lewis Cook Bournemouth Активный 147 / 150 40% 1 23.10.2026 -
Adrien Truffert Bournemouth Активный 148 / 149 40% 1 21.10.2026 -
Robert-Jan Vanwesemael Sint-Truiden Активный 112 / 120 40% 1 20.10.2026 -
Chris Lokesa Waasland-Beveren Активный 125 / 124 40% 2 18.10.2026 -
Doğucan Haspolat Westerlo Активный 129 / 120 40% 1 18.10.2026 -
William Saliba Arsenal Активный 173 / 176 40% 4 16.10.2026 -
Amadou Onana Aston Villa Активный 156 / 151 40% 3 16.10.2026 -
Aimé Omgba KAA Gent Активный 125 / 126 40% 2 15.10.2026 -
Rémi Lemoine Chamois Niortais Упущен 163 / 162 40% 1 15.10.2026 -
Jan Paul van Hecke Tottenham Активный 154 / 155 40% 1 14.10.2026 -
Levi Colwill Chelsea Активный 157 / 164 40% 2 11.10.2026 -
Mario Stroeykens Anderlecht Упущен 121 / 132 40% 1 10.10.2026 -
Gabriel Martinelli Brighton Активный 158 / 157 40% 1 08.10.2026 -
James Cardona La Equidad Активный 144 / 150 40% 1 08.10.2026 -
Youri Tielemans Manchester United Активный 159 / 158 40% 1 07.10.2026 -
Martin Ødegaard Arsenal Активный 177 / 174 40% 2 06.10.2026 -
Matty Cash Aston Villa Активный 149 / 153 40% 1 29.09.2026 -
Ezri Konsa Arsenal Активный 159 / 149 40% 1 25.09.2026 -
Willian Pacho Paris Saint-Germain Активный 159 / 164 40% 2 23.09.2026 -
Joaquin Seys Club Brugge Активный 120 / 124 40% 1 20.09.2026 -
Benjamin White Arsenal Активный 156 / 159 40% 1 15.09.2026 -
Rúben Dias Manchester City Активный 170 / 171 40% 2 14.09.2026 -
Laurent Batshuayi KV Oostende Активный 130 / 138 40% 1 12.09.2026 -
Yaimar Medina Racing Genk Активный 126 / 129 40% 1 11.09.2026 -
Martín Zubimendi Arsenal Активный 168 / 159 40% 2 09.09.2026 -
Désiré Doué Paris Saint-Germain Активный 152 / 159 40% 1 02.08.2026 -
Micky van de Ven Tottenham Активный 148 / 152 40% 1 02.08.2026 -